KCXO/CXO METAR and TAF weather

Enter ICAO airport designator
Station Type Date Time Source
KCXO METAR 2022/12/04 05:53 UTC NOAA

KCXO 040553Z AUTO 32004KT 10SM OVC036 14/09 A3032 RMK AO2 SLP266 T01440089 10178 20144 402440144 58007


Station Type Date Time Source
KCXO Decoded METAR 2022/12/04 05:53 UTC NOAA

LONE STAR EXECUTIVE AIRPORT, TX, United States (KCXO) 30-21N 95-25W 75M
Dec 04, 2022 - 12:53 AM EST / 2022.12.04 0553 UTC
Wind: from the NW (320 degrees) at 5 MPH (4 KT):0
Visibility: 10 mile(s):0
Sky conditions: overcast
Temperature: 57.9 F (14.4 C)
Dew Point: 48.0 F (8.9 C)
Relative Humidity: 69%
Pressure (altimeter): 30.32 in. Hg (1026 hPa)
Pressure tendency: 0.02 inches (0.7 hPa) lower than three hours ago
ob: KCXO 040553Z AUTO 32004KT 10SM OVC036 14/09 A3032 RMK AO2 SLP266 T01440089 10178 20144 402440144 58007
cycle: 6

Station Type Date Time Source
KCXO TAF 2022/12/04 06:24 UTC NOAA

TAF KCXO 040521Z 0406/0506 VRB03KT P6SM OVC035
FM040800 VRB04KT P6SM BKN020
FM041900 05004KT P6SM BKN025

Example: see airport list